Aérodrome :
LOGIN :

S'inscrire | Disclaimer

   EN    FR    IT 

 










Légende :    VFR   VFR Marginal   IFR   IFR Intensif   IFR Très Intensif
Visi : 
Plafond : 
>= 8 km
>= 3000ft
5 à 8 km
1000 à 3000 ft
1500m à 5 km
500 à 1000 ft
800 à 1500m
200 à 500 ft
< 800m
< 200 ft
Symboles :   Orages  Brouillard  Fortes neiges  Fortes précipitations  Vent > 20 kt
SIGMETs :   Divers  Orages  Givrage  Turbulence  Onde Orograph.  Cendres Volcan.







- Altitude de l'aérodrome : 160 ft
- Code IATA : FMO


EDDG - Münster Osnabrück Int.

DERNIER METAR :
  • 230420Z 12004KT 060V180 4000 -SN FEW013 BKN030 M04/M06 Q0999 NOSIG

METARs EXPIRÉS :
  • 230350Z 11004KT 040V160 4000 -SN FEW015 BKN030 M04/M06 Q0999 NOSIG
  • 230320Z VRB04KT 2500 -SN SCT013 BKN022 M04/M05 Q0999 TEMPO 3500 BKN013
  • 230250Z 12004KT 060V150 3000 -SN FEW014 BKN022 M04/M05 Q1000 NOSIG
  • 230220Z VRB05KT 3000 -SN BKN030 M04/M06 Q1000 NOSIG
  • 230150Z 12004KT 060V200 3000 -SN BKN035 M03/M05 Q1000 NOSIG

TAF TAF EDDG
Valide du 23 à 00h jusqu'au 24 à 00h UTC


222300Z 2300/2324 13005KT 8000 BKN025
TEMPO 2300/2308 4000 -SN BR BKN012
BECMG 2309/2312 07005KT
Pas de NOTAMs connus pour ce terrain.



MET'MAP, la Météo Aéronautique d'un coup d'oeil ! - Copyright ORBIFLY Décembre 2007 - Disclaimer

ORBIFLY MET'MAP TEAM :

Programmation & Développement : Alexandra Zaïnal
Conception & Développement : Baudouin d'Aumeries
Co-Programmation & Développement : Marc-Olivier Méhu
Soutien technique & logistique : Manuel Goepfert

Contact : metmap@orbifly.com




SOURCES & CREDITS :

   NOAA